Terminal Aerodrome Forecast
Issued by NWS

Home | Current Version | Previous Version | Text Only | Print | Product List | Glossary On
Versions: 1 2 3 4 5 6 7 8 9 10 11 12 13 14 15 16 17 18 19 20 21 22 23 24
000
FTPA31 PHFO 252300
TAFJHM
TAF
PHJH 252335Z 2600/2624 06014G20KT P6SM FEW025 SCT040
     FM260700 06008KT P6SM FEW025 SCT040
     FM262000 06014G20KT P6SM FEW025 SCT040
      AMD NOT SKED AFT 260400=

USA.gov is the U.S. government's official web portal to all federal, state and local government web resources and services.